sensor_id;sensor_type;location;lat;lon;timestamp;P1;durP1;ratioP1;P2;durP2;ratioP2
54408;SDS011;40315;48.620;9.828;2022-08-19T00:01:39;17.50;;;15.65;;
54408;SDS011;40315;48.620;9.828;2022-08-19T00:04:11;19.85;;;17.27;;
54408;SDS011;40315;48.620;9.828;2022-08-19T00:06:43;19.33;;;17.30;;
54408;SDS011;40315;48.620;9.828;2022-08-19T00:09:13;19.40;;;17.25;;
54408;SDS011;40315;48.620;9.828;2022-08-19T00:11:45;19.33;;;16.58;;
54408;SDS011;40315;48.620;9.828;2022-08-19T00:14:14;20.15;;;18.02;;
54408;SDS011;40315;48.620;9.828;2022-08-19T00:16:42;18.27;;;16.48;;
54408;SDS011;40315;48.620;9.828;2022-08-19T00:19:13;18.85;;;17.05;;
54408;SDS011;40315;48.620;9.828;2022-08-19T00:21:42;21.60;;;19.30;;
54408;SDS011;40315;48.620;9.828;2022-08-19T00:24:12;22.90;;;20.50;;
54408;SDS011;40315;48.620;9.828;2022-08-19T00:26:43;20.08;;;18.00;;
54408;SDS011;40315;48.620;9.828;2022-08-19T00:29:14;22.83;;;20.30;;
54408;SDS011;40315;48.620;9.828;2022-08-19T00:31:44;20.90;;;18.73;;
54408;SDS011;40315;48.620;9.828;2022-08-19T00:34:14;19.88;;;17.88;;
54408;SDS011;40315;48.620;9.828;2022-08-19T00:36:45;20.40;;;18.20;;
54408;SDS011;40315;48.620;9.828;2022-08-19T00:39:17;19.83;;;17.75;;
54408;SDS011;40315;48.620;9.828;2022-08-19T00:41:44;22.05;;;19.77;;
54408;SDS011;40315;48.620;9.828;2022-08-19T00:44:14;20.88;;;18.73;;
54408;SDS011;40315;48.620;9.828;2022-08-19T00:46:44;20.38;;;18.27;;
54408;SDS011;40315;48.620;9.828;2022-08-19T00:49:14;20.13;;;17.98;;
54408;SDS011;40315;48.620;9.828;2022-08-19T00:51:45;20.20;;;18.10;;
54408;SDS011;40315;48.620;9.828;2022-08-19T00:54:14;20.58;;;18.48;;
54408;SDS011;40315;48.620;9.828;2022-08-19T00:56:43;23.35;;;20.92;;
54408;SDS011;40315;48.620;9.828;2022-08-19T00:59:11;24.77;;;22.17;;
54408;SDS011;40315;48.620;9.828;2022-08-19T01:01:40;22.65;;;20.35;;
54408;SDS011;40315;48.620;9.828;2022-08-19T01:04:11;23.23;;;20.80;;
54408;SDS011;40315;48.620;9.828;2022-08-19T01:06:39;22.27;;;19.25;;
54408;SDS011;40315;48.620;9.828;2022-08-19T01:09:08;22.25;;;19.85;;
54408;SDS011;40315;48.620;9.828;2022-08-19T01:11:36;22.33;;;19.80;;
54408;SDS011;40315;48.620;9.828;2022-08-19T01:14:06;22.27;;;19.90;;
54408;SDS011;40315;48.620;9.828;2022-08-19T01:16:34;22.80;;;20.40;;
54408;SDS011;40315;48.620;9.828;2022-08-19T01:19:02;22.25;;;20.00;;
54408;SDS011;40315;48.620;9.828;2022-08-19T01:21:31;22.70;;;20.35;;
54408;SDS011;40315;48.620;9.828;2022-08-19T01:24:04;21.55;;;19.25;;
54408;SDS011;40315;48.620;9.828;2022-08-19T01:26:34;23.02;;;20.67;;
54408;SDS011;40315;48.620;9.828;2022-08-19T01:29:07;22.25;;;19.77;;
54408;SDS011;40315;48.620;9.828;2022-08-19T01:31:34;23.05;;;20.05;;
54408;SDS011;40315;48.620;9.828;2022-08-19T01:34:02;20.83;;;18.60;;
54408;SDS011;40315;48.620;9.828;2022-08-19T01:36:31;22.60;;;20.20;;
54408;SDS011;40315;48.620;9.828;2022-08-19T01:39:00;22.38;;;20.08;;
54408;SDS011;40315;48.620;9.828;2022-08-19T01:44:55;24.35;;;20.63;;
54408;SDS011;40315;48.620;9.828;2022-08-19T01:47:22;22.88;;;20.48;;
54408;SDS011;40315;48.620;9.828;2022-08-19T01:49:49;22.05;;;19.75;;
54408;SDS011;40315;48.620;9.828;2022-08-19T01:52:16;22.90;;;19.83;;
54408;SDS011;40315;48.620;9.828;2022-08-19T01:54:43;22.85;;;20.42;;
54408;SDS011;40315;48.620;9.828;2022-08-19T01:57:10;21.98;;;19.55;;
54408;SDS011;40315;48.620;9.828;2022-08-19T01:59:40;21.98;;;19.58;;
54408;SDS011;40315;48.620;9.828;2022-08-19T02:02:10;22.40;;;19.95;;
54408;SDS011;40315;48.620;9.828;2022-08-19T02:04:39;24.27;;;21.58;;
54408;SDS011;40315;48.620;9.828;2022-08-19T02:07:07;22.08;;;19.77;;
54408;SDS011;40315;48.620;9.828;2022-08-19T02:09:34;25.73;;;21.63;;
54408;SDS011;40315;48.620;9.828;2022-08-19T02:12:04;21.63;;;19.40;;
54408;SDS011;40315;48.620;9.828;2022-08-19T02:14:33;23.35;;;19.90;;
54408;SDS011;40315;48.620;9.828;2022-08-19T02:17:00;22.48;;;20.10;;
54408;SDS011;40315;48.620;9.828;2022-08-19T02:19:31;23.08;;;20.13;;
54408;SDS011;40315;48.620;9.828;2022-08-19T02:21:58;24.73;;;21.67;;
54408;SDS011;40315;48.620;9.828;2022-08-19T02:24:26;23.10;;;20.58;;
54408;SDS011;40315;48.620;9.828;2022-08-19T02:26:53;24.10;;;20.60;;
54408;SDS011;40315;48.620;9.828;2022-08-19T02:29:20;24.13;;;20.88;;
54408;SDS011;40315;48.620;9.828;2022-08-19T02:31:47;23.63;;;20.88;;
54408;SDS011;40315;48.620;9.828;2022-08-19T02:34:17;24.70;;;22.10;;
54408;SDS011;40315;48.620;9.828;2022-08-19T02:36:46;23.33;;;20.70;;
54408;SDS011;40315;48.620;9.828;2022-08-19T02:39:13;23.13;;;20.15;;
54408;SDS011;40315;48.620;9.828;2022-08-19T02:41:41;23.77;;;20.27;;
54408;SDS011;40315;48.620;9.828;2022-08-19T02:44:08;26.50;;;22.30;;
54408;SDS011;40315;48.620;9.828;2022-08-19T02:46:37;24.15;;;21.55;;
54408;SDS011;40315;48.620;9.828;2022-08-19T02:49:05;22.92;;;20.38;;
54408;SDS011;40315;48.620;9.828;2022-08-19T02:51:34;23.20;;;20.30;;
54408;SDS011;40315;48.620;9.828;2022-08-19T02:54:06;23.70;;;20.85;;
54408;SDS011;40315;48.620;9.828;2022-08-19T02:56:34;25.40;;;21.08;;
54408;SDS011;40315;48.620;9.828;2022-08-19T02:59:03;25.40;;;21.27;;
54408;SDS011;40315;48.620;9.828;2022-08-19T03:01:36;24.67;;;20.52;;
54408;SDS011;40315;48.620;9.828;2022-08-19T03:04:07;22.83;;;19.77;;
54408;SDS011;40315;48.620;9.828;2022-08-19T03:06:35;24.85;;;20.08;;
54408;SDS011;40315;48.620;9.828;2022-08-19T03:09:05;24.90;;;21.40;;
54408;SDS011;40315;48.620;9.828;2022-08-19T03:11:33;26.20;;;21.50;;
54408;SDS011;40315;48.620;9.828;2022-08-19T03:14:03;25.15;;;21.27;;
54408;SDS011;40315;48.620;9.828;2022-08-19T03:16:32;25.65;;;21.17;;
54408;SDS011;40315;48.620;9.828;2022-08-19T03:19:01;24.55;;;21.15;;
54408;SDS011;40315;48.620;9.828;2022-08-19T03:21:29;26.27;;;21.83;;
54408;SDS011;40315;48.620;9.828;2022-08-19T03:23:58;25.85;;;21.92;;
54408;SDS011;40315;48.620;9.828;2022-08-19T03:26:28;26.17;;;21.98;;
54408;SDS011;40315;48.620;9.828;2022-08-19T03:29:00;24.95;;;21.73;;
54408;SDS011;40315;48.620;9.828;2022-08-19T03:31:28;24.50;;;21.42;;
54408;SDS011;40315;48.620;9.828;2022-08-19T03:33:56;26.75;;;21.48;;
54408;SDS011;40315;48.620;9.828;2022-08-19T03:36:26;24.45;;;21.50;;
54408;SDS011;40315;48.620;9.828;2022-08-19T03:39:02;27.50;;;23.88;;
54408;SDS011;40315;48.620;9.828;2022-08-19T03:41:36;27.25;;;21.70;;
54408;SDS011;40315;48.620;9.828;2022-08-19T03:44:04;25.00;;;21.42;;
54408;SDS011;40315;48.620;9.828;2022-08-19T03:46:34;26.77;;;22.25;;
54408;SDS011;40315;48.620;9.828;2022-08-19T03:49:03;26.27;;;21.55;;
54408;SDS011;40315;48.620;9.828;2022-08-19T03:51:33;31.13;;;23.35;;
54408;SDS011;40315;48.620;9.828;2022-08-19T03:54:04;26.80;;;21.27;;
54408;SDS011;40315;48.620;9.828;2022-08-19T03:56:35;27.27;;;22.80;;
54408;SDS011;40315;48.620;9.828;2022-08-19T03:59:04;27.98;;;22.88;;
54408;SDS011;40315;48.620;9.828;2022-08-19T04:01:32;27.17;;;22.73;;
54408;SDS011;40315;48.620;9.828;2022-08-19T04:04:01;29.88;;;23.77;;
54408;SDS011;40315;48.620;9.828;2022-08-19T04:06:30;27.30;;;22.60;;
54408;SDS011;40315;48.620;9.828;2022-08-19T04:08:59;28.60;;;23.35;;
54408;SDS011;40315;48.620;9.828;2022-08-19T04:11:29;29.27;;;22.35;;
54408;SDS011;40315;48.620;9.828;2022-08-19T04:14:01;29.63;;;22.83;;
54408;SDS011;40315;48.620;9.828;2022-08-19T04:16:28;27.52;;;22.58;;
54408;SDS011;40315;48.620;9.828;2022-08-19T04:18:59;30.10;;;23.40;;
54408;SDS011;40315;48.620;9.828;2022-08-19T04:21:27;26.65;;;21.83;;
54408;SDS011;40315;48.620;9.828;2022-08-19T04:23:55;29.88;;;24.98;;
54408;SDS011;40315;48.620;9.828;2022-08-19T04:26:24;30.10;;;24.90;;
54408;SDS011;40315;48.620;9.828;2022-08-19T04:28:52;30.83;;;24.38;;
54408;SDS011;40315;48.620;9.828;2022-08-19T04:31:24;28.83;;;22.75;;
54408;SDS011;40315;48.620;9.828;2022-08-19T04:33:53;29.27;;;23.00;;
54408;SDS011;40315;48.620;9.828;2022-08-19T04:36:22;31.50;;;24.75;;
54408;SDS011;40315;48.620;9.828;2022-08-19T04:38:52;32.28;;;23.48;;
54408;SDS011;40315;48.620;9.828;2022-08-19T04:41:20;31.48;;;23.42;;
54408;SDS011;40315;48.620;9.828;2022-08-19T04:44:05;29.27;;;22.55;;
54408;SDS011;40315;48.620;9.828;2022-08-19T04:46:34;32.28;;;23.17;;
54408;SDS011;40315;48.620;9.828;2022-08-19T04:49:01;26.23;;;21.48;;
54408;SDS011;40315;48.620;9.828;2022-08-19T04:51:30;32.45;;;24.85;;
54408;SDS011;40315;48.620;9.828;2022-08-19T04:53:58;28.10;;;22.50;;
54408;SDS011;40315;48.620;9.828;2022-08-19T04:56:26;26.23;;;22.35;;
54408;SDS011;40315;48.620;9.828;2022-08-19T04:58:59;27.75;;;22.63;;
54408;SDS011;40315;48.620;9.828;2022-08-19T05:01:28;30.52;;;24.02;;
54408;SDS011;40315;48.620;9.828;2022-08-19T05:04:00;31.73;;;24.27;;
54408;SDS011;40315;48.620;9.828;2022-08-19T05:06:33;31.35;;;24.08;;
54408;SDS011;40315;48.620;9.828;2022-08-19T05:09:02;29.92;;;23.80;;
54408;SDS011;40315;48.620;9.828;2022-08-19T05:11:33;29.45;;;22.95;;
54408;SDS011;40315;48.620;9.828;2022-08-19T05:14:04;30.95;;;23.98;;
54408;SDS011;40315;48.620;9.828;2022-08-19T05:16:31;33.97;;;25.20;;
54408;SDS011;40315;48.620;9.828;2022-08-19T05:19:02;31.40;;;24.90;;
54408;SDS011;40315;48.620;9.828;2022-08-19T05:22:01;29.27;;;23.50;;
54408;SDS011;40315;48.620;9.828;2022-08-19T05:24:45;30.40;;;25.00;;
54408;SDS011;40315;48.620;9.828;2022-08-19T05:27:12;28.42;;;22.92;;
54408;SDS011;40315;48.620;9.828;2022-08-19T05:29:41;31.88;;;23.90;;
54408;SDS011;40315;48.620;9.828;2022-08-19T05:32:08;34.30;;;24.25;;
54408;SDS011;40315;48.620;9.828;2022-08-19T05:34:39;32.50;;;24.38;;
54408;SDS011;40315;48.620;9.828;2022-08-19T05:37:06;34.95;;;25.27;;
54408;SDS011;40315;48.620;9.828;2022-08-19T05:39:36;29.20;;;22.73;;
54408;SDS011;40315;48.620;9.828;2022-08-19T05:42:06;32.03;;;23.92;;
54408;SDS011;40315;48.620;9.828;2022-08-19T05:44:36;29.13;;;23.08;;
54408;SDS011;40315;48.620;9.828;2022-08-19T05:47:09;34.78;;;23.60;;
54408;SDS011;40315;48.620;9.828;2022-08-19T05:49:41;31.25;;;22.83;;
54408;SDS011;40315;48.620;9.828;2022-08-19T05:52:09;31.85;;;23.48;;
54408;SDS011;40315;48.620;9.828;2022-08-19T05:54:39;34.20;;;25.50;;
54408;SDS011;40315;48.620;9.828;2022-08-19T05:57:08;39.88;;;26.48;;
54408;SDS011;40315;48.620;9.828;2022-08-19T05:59:35;35.40;;;26.45;;
54408;SDS011;40315;48.620;9.828;2022-08-19T06:02:05;36.55;;;26.95;;
54408;SDS011;40315;48.620;9.828;2022-08-19T06:04:33;36.13;;;25.52;;
54408;SDS011;40315;48.620;9.828;2022-08-19T06:07:01;38.53;;;26.92;;
54408;SDS011;40315;48.620;9.828;2022-08-19T06:09:29;39.25;;;27.77;;
54408;SDS011;40315;48.620;9.828;2022-08-19T06:11:57;37.10;;;25.80;;
54408;SDS011;40315;48.620;9.828;2022-08-19T06:14:28;35.83;;;25.05;;
54408;SDS011;40315;48.620;9.828;2022-08-19T06:16:56;36.60;;;25.90;;
54408;SDS011;40315;48.620;9.828;2022-08-19T06:19:29;40.55;;;27.88;;
54408;SDS011;40315;48.620;9.828;2022-08-19T06:21:57;37.40;;;26.90;;
54408;SDS011;40315;48.620;9.828;2022-08-19T06:24:27;36.47;;;25.48;;
54408;SDS011;40315;48.620;9.828;2022-08-19T06:26:57;42.30;;;26.33;;
54408;SDS011;40315;48.620;9.828;2022-08-19T06:29:27;34.17;;;23.92;;
54408;SDS011;40315;48.620;9.828;2022-08-19T06:31:58;36.58;;;25.95;;
54408;SDS011;40315;48.620;9.828;2022-08-19T06:34:31;39.90;;;28.33;;
54408;SDS011;40315;48.620;9.828;2022-08-19T06:37:00;40.92;;;27.67;;
54408;SDS011;40315;48.620;9.828;2022-08-19T06:39:30;44.22;;;28.23;;
54408;SDS011;40315;48.620;9.828;2022-08-19T06:42:00;43.72;;;29.48;;
54408;SDS011;40315;48.620;9.828;2022-08-19T06:44:32;44.40;;;29.38;;
54408;SDS011;40315;48.620;9.828;2022-08-19T06:47:02;47.45;;;29.83;;
54408;SDS011;40315;48.620;9.828;2022-08-19T06:49:30;48.95;;;31.55;;
54408;SDS011;40315;48.620;9.828;2022-08-19T06:51:59;47.55;;;31.13;;
54408;SDS011;40315;48.620;9.828;2022-08-19T06:54:27;46.63;;;30.63;;
54408;SDS011;40315;48.620;9.828;2022-08-19T06:56:56;47.08;;;30.65;;
54408;SDS011;40315;48.620;9.828;2022-08-19T06:59:24;49.35;;;31.33;;
54408;SDS011;40315;48.620;9.828;2022-08-19T07:01:53;49.60;;;31.65;;
54408;SDS011;40315;48.620;9.828;2022-08-19T07:04:22;52.40;;;32.65;;
54408;SDS011;40315;48.620;9.828;2022-08-19T07:06:56;50.83;;;32.95;;
54408;SDS011;40315;48.620;9.828;2022-08-19T07:09:25;57.63;;;34.22;;
54408;SDS011;40315;48.620;9.828;2022-08-19T07:11:54;56.58;;;32.95;;
54408;SDS011;40315;48.620;9.828;2022-08-19T07:14:22;47.80;;;31.48;;
54408;SDS011;40315;48.620;9.828;2022-08-19T07:16:52;52.65;;;32.75;;
54408;SDS011;40315;48.620;9.828;2022-08-19T07:19:21;52.45;;;31.25;;
54408;SDS011;40315;48.620;9.828;2022-08-19T07:21:50;47.15;;;31.00;;
54408;SDS011;40315;48.620;9.828;2022-08-19T07:24:22;44.58;;;30.10;;
54408;SDS011;40315;48.620;9.828;2022-08-19T07:26:51;43.60;;;27.42;;
54408;SDS011;40315;48.620;9.828;2022-08-19T07:29:28;46.88;;;30.98;;
54408;SDS011;40315;48.620;9.828;2022-08-19T07:32:01;46.05;;;29.27;;
54408;SDS011;40315;48.620;9.828;2022-08-19T07:34:32;43.63;;;30.77;;
54408;SDS011;40315;48.620;9.828;2022-08-19T07:37:05;40.90;;;28.10;;
54408;SDS011;40315;48.620;9.828;2022-08-19T07:39:34;40.72;;;28.55;;
54408;SDS011;40315;48.620;9.828;2022-08-19T07:42:06;47.45;;;30.90;;
54408;SDS011;40315;48.620;9.828;2022-08-19T07:44:37;41.40;;;28.13;;
54408;SDS011;40315;48.620;9.828;2022-08-19T07:47:06;45.00;;;30.92;;
54408;SDS011;40315;48.620;9.828;2022-08-19T07:49:45;49.30;;;30.40;;
54408;SDS011;40315;48.620;9.828;2022-08-19T07:52:12;47.47;;;31.35;;
54408;SDS011;40315;48.620;9.828;2022-08-19T07:54:43;43.72;;;30.08;;
54408;SDS011;40315;48.620;9.828;2022-08-19T07:57:15;44.97;;;31.00;;
54408;SDS011;40315;48.620;9.828;2022-08-19T07:59:44;44.58;;;29.40;;
54408;SDS011;40315;48.620;9.828;2022-08-19T08:02:11;49.35;;;33.08;;
54408;SDS011;40315;48.620;9.828;2022-08-19T08:04:40;52.22;;;33.13;;
54408;SDS011;40315;48.620;9.828;2022-08-19T08:07:27;54.75;;;32.67;;
54408;SDS011;40315;48.620;9.828;2022-08-19T08:10:12;52.47;;;34.42;;
54408;SDS011;40315;48.620;9.828;2022-08-19T08:12:41;51.85;;;33.58;;
54408;SDS011;40315;48.620;9.828;2022-08-19T08:15:13;54.17;;;35.67;;
54408;SDS011;40315;48.620;9.828;2022-08-19T08:17:44;54.92;;;35.88;;
54408;SDS011;40315;48.620;9.828;2022-08-19T08:20:11;57.45;;;36.17;;
54408;SDS011;40315;48.620;9.828;2022-08-19T08:22:42;57.88;;;36.63;;
54408;SDS011;40315;48.620;9.828;2022-08-19T08:25:29;55.75;;;35.80;;
54408;SDS011;40315;48.620;9.828;2022-08-19T08:27:58;54.33;;;35.30;;
54408;SDS011;40315;48.620;9.828;2022-08-19T08:30:26;51.33;;;34.00;;
54408;SDS011;40315;48.620;9.828;2022-08-19T08:33:03;50.15;;;33.35;;
54408;SDS011;40315;48.620;9.828;2022-08-19T08:35:30;50.00;;;33.17;;
54408;SDS011;40315;48.620;9.828;2022-08-19T08:38:01;52.38;;;33.22;;
54408;SDS011;40315;48.620;9.828;2022-08-19T08:40:31;49.45;;;32.45;;
54408;SDS011;40315;48.620;9.828;2022-08-19T08:43:07;50.45;;;33.70;;
54408;SDS011;40315;48.620;9.828;2022-08-19T08:45:41;47.92;;;33.08;;
54408;SDS011;40315;48.620;9.828;2022-08-19T08:48:18;47.05;;;32.08;;
54408;SDS011;40315;48.620;9.828;2022-08-19T08:50:52;47.20;;;32.13;;
54408;SDS011;40315;48.620;9.828;2022-08-19T08:53:20;46.15;;;32.80;;
54408;SDS011;40315;48.620;9.828;2022-08-19T08:55:50;44.22;;;31.50;;
54408;SDS011;40315;48.620;9.828;2022-08-19T08:58:20;45.90;;;32.30;;
54408;SDS011;40315;48.620;9.828;2022-08-19T09:00:55;43.60;;;30.75;;
54408;SDS011;40315;48.620;9.828;2022-08-19T09:03:24;42.60;;;30.35;;
54408;SDS011;40315;48.620;9.828;2022-08-19T09:05:56;42.38;;;30.52;;
54408;SDS011;40315;48.620;9.828;2022-08-19T09:08:32;43.10;;;32.00;;
54408;SDS011;40315;48.620;9.828;2022-08-19T09:11:07;44.05;;;31.27;;
54408;SDS011;40315;48.620;9.828;2022-08-19T09:13:42;44.45;;;31.10;;
54408;SDS011;40315;48.620;9.828;2022-08-19T09:16:20;44.95;;;30.42;;
54408;SDS011;40315;48.620;9.828;2022-08-19T09:18:52;46.70;;;32.17;;
54408;SDS011;40315;48.620;9.828;2022-08-19T09:21:25;43.83;;;30.85;;
54408;SDS011;40315;48.620;9.828;2022-08-19T09:23:53;45.30;;;32.80;;
54408;SDS011;40315;48.620;9.828;2022-08-19T09:26:22;43.25;;;31.92;;
54408;SDS011;40315;48.620;9.828;2022-08-19T09:28:51;45.65;;;31.92;;
54408;SDS011;40315;48.620;9.828;2022-08-19T09:31:22;41.38;;;29.45;;
54408;SDS011;40315;48.620;9.828;2022-08-19T09:33:51;46.20;;;30.92;;
54408;SDS011;40315;48.620;9.828;2022-08-19T09:36:22;45.17;;;31.42;;
54408;SDS011;40315;48.620;9.828;2022-08-19T09:38:50;45.50;;;31.50;;
54408;SDS011;40315;48.620;9.828;2022-08-19T09:41:21;43.92;;;29.98;;
54408;SDS011;40315;48.620;9.828;2022-08-19T09:43:54;42.90;;;30.27;;
54408;SDS011;40315;48.620;9.828;2022-08-19T09:46:23;45.08;;;31.13;;
54408;SDS011;40315;48.620;9.828;2022-08-19T09:48:52;43.58;;;30.75;;
54408;SDS011;40315;48.620;9.828;2022-08-19T09:51:22;46.42;;;31.35;;
54408;SDS011;40315;48.620;9.828;2022-08-19T09:53:53;45.78;;;31.92;;
54408;SDS011;40315;48.620;9.828;2022-08-19T09:56:22;46.45;;;31.83;;
54408;SDS011;40315;48.620;9.828;2022-08-19T09:58:49;48.90;;;31.98;;
54408;SDS011;40315;48.620;9.828;2022-08-19T10:01:18;46.65;;;31.25;;
54408;SDS011;40315;48.620;9.828;2022-08-19T10:03:47;44.20;;;30.33;;
54408;SDS011;40315;48.620;9.828;2022-08-19T10:06:16;44.40;;;31.00;;
54408;SDS011;40315;48.620;9.828;2022-08-19T10:08:43;44.70;;;31.65;;
54408;SDS011;40315;48.620;9.828;2022-08-19T10:11:11;43.65;;;31.02;;
54408;SDS011;40315;48.620;9.828;2022-08-19T10:13:43;42.92;;;31.23;;
54408;SDS011;40315;48.620;9.828;2022-08-19T10:16:11;42.58;;;30.67;;
54408;SDS011;40315;48.620;9.828;2022-08-19T10:18:42;42.20;;;29.23;;
54408;SDS011;40315;48.620;9.828;2022-08-19T10:21:12;43.03;;;30.00;;
54408;SDS011;40315;48.620;9.828;2022-08-19T10:23:41;42.13;;;30.02;;
54408;SDS011;40315;48.620;9.828;2022-08-19T10:26:11;42.88;;;29.52;;
54408;SDS011;40315;48.620;9.828;2022-08-19T10:28:40;40.85;;;29.83;;
54408;SDS011;40315;48.620;9.828;2022-08-19T10:31:08;38.25;;;29.30;;
54408;SDS011;40315;48.620;9.828;2022-08-19T10:33:36;41.30;;;30.42;;
54408;SDS011;40315;48.620;9.828;2022-08-19T10:36:10;39.80;;;29.20;;
54408;SDS011;40315;48.620;9.828;2022-08-19T10:38:40;43.13;;;29.70;;
54408;SDS011;40315;48.620;9.828;2022-08-19T10:41:10;39.97;;;29.27;;
54408;SDS011;40315;48.620;9.828;2022-08-19T10:43:39;39.72;;;28.90;;
54408;SDS011;40315;48.620;9.828;2022-08-19T10:46:11;37.35;;;28.50;;
54408;SDS011;40315;48.620;9.828;2022-08-19T10:48:39;39.53;;;29.10;;
54408;SDS011;40315;48.620;9.828;2022-08-19T10:51:08;37.80;;;26.80;;
54408;SDS011;40315;48.620;9.828;2022-08-19T10:53:55;38.65;;;28.40;;
54408;SDS011;40315;48.620;9.828;2022-08-19T10:56:25;41.67;;;29.52;;
54408;SDS011;40315;48.620;9.828;2022-08-19T10:59:10;38.90;;;27.88;;
54408;SDS011;40315;48.620;9.828;2022-08-19T11:01:39;38.58;;;29.05;;
54408;SDS011;40315;48.620;9.828;2022-08-19T11:04:07;42.92;;;30.02;;
54408;SDS011;40315;48.620;9.828;2022-08-19T11:06:37;44.08;;;29.77;;
54408;SDS011;40315;48.620;9.828;2022-08-19T11:09:06;42.05;;;30.45;;
54408;SDS011;40315;48.620;9.828;2022-08-19T11:11:37;38.95;;;29.50;;
54408;SDS011;40315;48.620;9.828;2022-08-19T11:14:06;38.85;;;28.92;;
54408;SDS011;40315;48.620;9.828;2022-08-19T11:16:33;42.50;;;29.08;;
54408;SDS011;40315;48.620;9.828;2022-08-19T11:19:01;44.00;;;29.40;;
54408;SDS011;40315;48.620;9.828;2022-08-19T11:21:29;41.85;;;29.67;;
54408;SDS011;40315;48.620;9.828;2022-08-19T11:23:59;44.50;;;30.10;;
54408;SDS011;40315;48.620;9.828;2022-08-19T11:26:31;38.13;;;28.60;;
54408;SDS011;40315;48.620;9.828;2022-08-19T11:28:59;42.35;;;29.42;;
54408;SDS011;40315;48.620;9.828;2022-08-19T11:31:30;41.50;;;30.42;;
54408;SDS011;40315;48.620;9.828;2022-08-19T11:34:03;36.47;;;27.92;;
54408;SDS011;40315;48.620;9.828;2022-08-19T11:36:36;40.17;;;29.40;;
54408;SDS011;40315;48.620;9.828;2022-08-19T11:39:05;37.08;;;27.42;;
54408;SDS011;40315;48.620;9.828;2022-08-19T11:41:33;34.85;;;26.33;;
54408;SDS011;40315;48.620;9.828;2022-08-19T11:44:01;39.88;;;29.60;;
54408;SDS011;40315;48.620;9.828;2022-08-19T11:46:31;42.00;;;31.33;;
54408;SDS011;40315;48.620;9.828;2022-08-19T11:49:07;40.50;;;30.58;;
54408;SDS011;40315;48.620;9.828;2022-08-19T11:51:35;41.92;;;30.27;;
54408;SDS011;40315;48.620;9.828;2022-08-19T11:54:07;44.92;;;31.48;;
54408;SDS011;40315;48.620;9.828;2022-08-19T11:56:37;44.65;;;30.77;;
54408;SDS011;40315;48.620;9.828;2022-08-19T11:59:05;43.83;;;30.77;;
54408;SDS011;40315;48.620;9.828;2022-08-19T12:01:33;43.70;;;30.75;;
54408;SDS011;40315;48.620;9.828;2022-08-19T12:04:04;44.42;;;30.90;;
54408;SDS011;40315;48.620;9.828;2022-08-19T12:06:31;46.47;;;31.65;;
54408;SDS011;40315;48.620;9.828;2022-08-19T12:09:04;42.47;;;29.52;;
54408;SDS011;40315;48.620;9.828;2022-08-19T12:11:33;43.58;;;30.38;;
54408;SDS011;40315;48.620;9.828;2022-08-19T12:14:03;41.03;;;29.83;;
54408;SDS011;40315;48.620;9.828;2022-08-19T12:16:31;43.28;;;30.40;;
54408;SDS011;40315;48.620;9.828;2022-08-19T12:18:58;38.20;;;27.30;;
54408;SDS011;40315;48.620;9.828;2022-08-19T12:21:29;40.25;;;29.42;;
54408;SDS011;40315;48.620;9.828;2022-08-19T12:23:57;40.30;;;29.80;;
54408;SDS011;40315;48.620;9.828;2022-08-19T12:26:26;36.80;;;27.80;;
54408;SDS011;40315;48.620;9.828;2022-08-19T12:28:57;39.28;;;30.25;;
54408;SDS011;40315;48.620;9.828;2022-08-19T12:31:25;34.97;;;27.02;;
54408;SDS011;40315;48.620;9.828;2022-08-19T12:33:53;40.55;;;29.08;;
54408;SDS011;40315;48.620;9.828;2022-08-19T12:36:20;38.88;;;28.33;;
54408;SDS011;40315;48.620;9.828;2022-08-19T12:38:50;35.67;;;26.63;;
54408;SDS011;40315;48.620;9.828;2022-08-19T12:41:22;39.33;;;28.70;;
54408;SDS011;40315;48.620;9.828;2022-08-19T12:43:49;34.78;;;25.88;;
54408;SDS011;40315;48.620;9.828;2022-08-19T12:46:19;33.20;;;25.20;;
54408;SDS011;40315;48.620;9.828;2022-08-19T12:48:46;32.92;;;25.38;;
54408;SDS011;40315;48.620;9.828;2022-08-19T12:51:14;31.02;;;23.33;;
54408;SDS011;40315;48.620;9.828;2022-08-19T12:53:44;31.10;;;23.38;;
54408;SDS011;40315;48.620;9.828;2022-08-19T12:56:12;27.73;;;21.30;;
54408;SDS011;40315;48.620;9.828;2022-08-19T12:58:40;28.08;;;22.23;;
54408;SDS011;40315;48.620;9.828;2022-08-19T13:01:09;28.33;;;22.85;;
54408;SDS011;40315;48.620;9.828;2022-08-19T13:03:41;25.40;;;20.42;;
54408;SDS011;40315;48.620;9.828;2022-08-19T13:06:08;23.33;;;18.88;;
54408;SDS011;40315;48.620;9.828;2022-08-19T13:08:36;30.00;;;22.15;;
54408;SDS011;40315;48.620;9.828;2022-08-19T13:11:07;25.10;;;20.38;;
54408;SDS011;40315;48.620;9.828;2022-08-19T13:13:37;26.20;;;21.17;;
54408;SDS011;40315;48.620;9.828;2022-08-19T13:16:06;28.80;;;22.23;;
54408;SDS011;40315;48.620;9.828;2022-08-19T13:18:36;28.15;;;21.95;;
54408;SDS011;40315;48.620;9.828;2022-08-19T13:21:08;27.00;;;21.75;;
54408;SDS011;40315;48.620;9.828;2022-08-19T13:23:38;28.42;;;21.48;;
54408;SDS011;40315;48.620;9.828;2022-08-19T13:26:06;28.77;;;22.30;;
54408;SDS011;40315;48.620;9.828;2022-08-19T13:28:34;33.88;;;24.67;;
54408;SDS011;40315;48.620;9.828;2022-08-19T13:31:20;38.60;;;26.88;;
54408;SDS011;40315;48.620;9.828;2022-08-19T13:34:09;35.55;;;24.95;;
54408;SDS011;40315;48.620;9.828;2022-08-19T13:36:38;36.17;;;25.92;;
54408;SDS011;40315;48.620;9.828;2022-08-19T13:39:05;34.40;;;24.55;;
54408;SDS011;40315;48.620;9.828;2022-08-19T13:41:33;34.72;;;25.35;;
54408;SDS011;40315;48.620;9.828;2022-08-19T13:44:01;33.45;;;25.65;;
54408;SDS011;40315;48.620;9.828;2022-08-19T13:46:28;36.42;;;25.27;;
54408;SDS011;40315;48.620;9.828;2022-08-19T13:48:55;34.67;;;25.88;;
54408;SDS011;40315;48.620;9.828;2022-08-19T13:51:22;39.10;;;27.55;;
54408;SDS011;40315;48.620;9.828;2022-08-19T13:53:51;36.33;;;26.92;;
54408;SDS011;40315;48.620;9.828;2022-08-19T13:56:20;35.72;;;26.27;;
54408;SDS011;40315;48.620;9.828;2022-08-19T13:58:47;33.33;;;25.58;;
54408;SDS011;40315;48.620;9.828;2022-08-19T14:01:18;31.35;;;24.48;;
54408;SDS011;40315;48.620;9.828;2022-08-19T14:03:47;31.30;;;24.73;;
54408;SDS011;40315;48.620;9.828;2022-08-19T14:06:14;33.17;;;24.30;;
54408;SDS011;40315;48.620;9.828;2022-08-19T14:08:42;28.13;;;23.27;;
54408;SDS011;40315;48.620;9.828;2022-08-19T14:11:16;28.23;;;22.48;;
54408;SDS011;40315;48.620;9.828;2022-08-19T14:13:43;31.02;;;23.48;;
54408;SDS011;40315;48.620;9.828;2022-08-19T14:16:10;28.90;;;22.00;;
54408;SDS011;40315;48.620;9.828;2022-08-19T14:18:41;28.83;;;22.67;;
54408;SDS011;40315;48.620;9.828;2022-08-19T14:21:14;28.30;;;21.02;;
54408;SDS011;40315;48.620;9.828;2022-08-19T14:23:42;23.38;;;19.50;;
54408;SDS011;40315;48.620;9.828;2022-08-19T14:26:11;23.65;;;19.60;;
54408;SDS011;40315;48.620;9.828;2022-08-19T14:28:41;20.95;;;17.73;;
54408;SDS011;40315;48.620;9.828;2022-08-19T14:31:09;19.77;;;17.25;;
54408;SDS011;40315;48.620;9.828;2022-08-19T14:33:36;19.42;;;17.40;;
54408;SDS011;40315;48.620;9.828;2022-08-19T14:36:04;19.73;;;17.10;;
54408;SDS011;40315;48.620;9.828;2022-08-19T14:38:33;18.80;;;16.80;;
54408;SDS011;40315;48.620;9.828;2022-08-19T14:41:11;17.55;;;15.65;;